Buffalo, Minnesota
Current Conditions -  °F | °C
As of 8:34 PM on Wednesday 17 Dec 2014 (Local Time) from KCFE Reporting Station
Scattered Clouds Scattered Clouds  
Wind Chill: 13°   Ceiling: Unl
Heat Index: 13°   Visibility: 10mi
Dew Point: 10°   Wind: 0mph
Humidity: 89%   Direction: NA
Pressure: 30.33"   Gusts: NA
Location:  45.17°N, 93.88°W
Report Text: KCFE 180234Z AUTO 00000KT 10SM SCT055 M10/M12 A3033 RMK AO2 T11051120
Loading
Personal Weather Stations






























Interactive Weather Map New forecast layout! Learn more

10-Day Weather Forecast

Advertisements
Track Severe Weather on mobile